This is the latest recevied weather packets stored in our database for station/object EA7RX-3. If no packets are shown the sender has not sent any weather packets the latest 10 day(s).
| Time | Temp. | Humidity | Pressure | Rain* | Wind** | Luminosity | Snow |
|---|---|---|---|---|---|---|---|
| 1777724301 | 19.44° C | 89% | 1011.9 hPa | - | - | - | - |
| 1777723701 | 19.44° C | 95% | 1012.1 hPa | - | - | - | - |
| 1777723101 | 19.44° C | 10% | - | - | - | - | - |
| 1777722501 | 20° C | 95% | 1012.1 hPa | - | - | - | - |
| 1777721901 | 20.56° C | 79% | 1012.2 hPa | - | - | - | - |
| 1777721301 | 20° C | 79% | 1012.3 hPa | - | - | - | - |
| 1777720701 | 20.56° C | 66% | 1012.1 hPa | - | - | - | - |
| 1777720101 | 20° C | 69% | 1012.3 hPa | - | - | - | - |
| 1777719501 | 20.56° C | 67% | 1012.3 hPa | - | - | - | - |
| 1777718901 | 21.11° C | 66% | 1012.1 hPa | - | - | - | - |
| 1777718301 | 21.11° C | 63% | 1012.2 hPa | - | - | - | - |
| 1777717701 | 21.11° C | 69% | 1012.3 hPa | - | - | - | - |
| 1777717101 | 20° C | 74% | 1012.6 hPa | - | - | - | - |
| 1777716501 | 20° C | 75% | 1012.9 hPa | - | - | - | - |
| 1777715901 | 18.89° C | 79% | 1013.2 hPa | - | - | - | - |
| 1777715301 | 18.89° C | 84% | 1013.3 hPa | - | - | - | - |
| 1777714701 | 18.89° C | 85% | 1013.6 hPa | - | - | - | - |
| 1777714101 | 18.89° C | 82% | 1013.5 hPa | - | - | - | - |
| 1777713501 | 20° C | 78% | 1013.4 hPa | - | - | - | - |
| 1777712901 | 18.89° C | 82% | 1013.8 hPa | - | - | - | - |
| 1777712301 | 18.89° C | 88% | 1013.7 hPa | - | - | - | - |
| 1777711701 | 18.89° C | 99% | 1013.8 hPa | - | - | - | - |
| 1777711101 | 18.89° C | 10% | - | - | - | - | - |
| 1777710501 | 18.89° C | 10% | - | - | - | - | - |
| 1777709901 | 18.33° C | 10% | - | - | - | - | - |
* Rain since midnight (hover to see other rain measurements)
** Current wind speed in m/s (hover to see current wind gust speed)